sensor_id;sensor_type;location;lat;lon;timestamp;pressure;altitude;pressure_sealevel;temperature;humidity
54876;BME280;40764;48.472;8.166;2022-11-25T00:05:35;98089.16;;;4.18;98.59
54876;BME280;40764;48.472;8.166;2022-11-25T00:11:37;98086.03;;;4.04;99.44
54876;BME280;40764;48.472;8.166;2022-11-25T00:17:38;98085.44;;;3.97;100.00
54876;BME280;40764;48.472;8.166;2022-11-25T00:23:39;98083.78;;;4.23;99.62
54876;BME280;40764;48.472;8.166;2022-11-25T00:29:39;98090.69;;;4.36;99.29
54876;BME280;40764;48.472;8.166;2022-11-25T00:35:40;98085.00;;;4.38;98.52
54876;BME280;40764;48.472;8.166;2022-11-25T00:41:45;98081.84;;;4.19;97.85
54876;BME280;40764;48.472;8.166;2022-11-25T00:48:04;98094.75;;;4.39;98.71
54876;BME280;40764;48.472;8.166;2022-11-25T00:54:05;98086.91;;;4.37;98.24
54876;BME280;40764;48.472;8.166;2022-11-25T01:00:06;98094.22;;;4.10;98.91
54876;BME280;40764;48.472;8.166;2022-11-25T01:06:09;98090.75;;;4.14;100.00
54876;BME280;40764;48.472;8.166;2022-11-25T01:12:10;98094.66;;;4.28;99.36
54876;BME280;40764;48.472;8.166;2022-11-25T01:18:10;98100.75;;;4.46;99.33
54876;BME280;40764;48.472;8.166;2022-11-25T01:24:12;98102.13;;;4.48;99.11
54876;BME280;40764;48.472;8.166;2022-11-25T01:30:13;98093.19;;;4.48;98.92
54876;BME280;40764;48.472;8.166;2022-11-25T01:36:16;98103.56;;;4.61;98.30
54876;BME280;40764;48.472;8.166;2022-11-25T01:42:18;98095.47;;;4.29;99.73
54876;BME280;40764;48.472;8.166;2022-11-25T01:48:27;98092.31;;;4.37;100.00
54876;BME280;40764;48.472;8.166;2022-11-25T01:54:35;98104.09;;;4.58;100.00
54876;BME280;40764;48.472;8.166;2022-11-25T02:00:37;98090.53;;;4.53;100.00
54876;BME280;40764;48.472;8.166;2022-11-25T02:06:42;98086.94;;;4.79;99.46
54876;BME280;40764;48.472;8.166;2022-11-25T02:12:45;98087.50;;;4.86;98.42
54876;BME280;40764;48.472;8.166;2022-11-25T02:18:48;98089.03;;;4.67;98.38
54876;BME280;40764;48.472;8.166;2022-11-25T02:24:54;98086.78;;;4.59;99.90
54876;BME280;40764;48.472;8.166;2022-11-25T02:30:55;98082.63;;;4.46;99.54
54876;BME280;40764;48.472;8.166;2022-11-25T02:36:56;98071.97;;;4.66;99.75
54876;BME280;40764;48.472;8.166;2022-11-25T02:42:59;98067.16;;;4.79;99.40
54876;BME280;40764;48.472;8.166;2022-11-25T02:48:59;98059.53;;;4.71;100.00
54876;BME280;40764;48.472;8.166;2022-11-25T02:55:00;98062.56;;;4.79;99.31
54876;BME280;40764;48.472;8.166;2022-11-25T03:01:00;98060.47;;;4.54;100.00
54876;BME280;40764;48.472;8.166;2022-11-25T03:07:00;98053.72;;;4.57;100.00
54876;BME280;40764;48.472;8.166;2022-11-25T03:13:03;98058.94;;;4.63;100.00
54876;BME280;40764;48.472;8.166;2022-11-25T03:19:04;98067.16;;;4.42;99.59
54876;BME280;40764;48.472;8.166;2022-11-25T03:25:05;98051.97;;;4.73;100.00
54876;BME280;40764;48.472;8.166;2022-11-25T03:31:09;98046.53;;;4.73;99.53
54876;BME280;40764;48.472;8.166;2022-11-25T03:37:10;98051.94;;;4.68;99.29
54876;BME280;40764;48.472;8.166;2022-11-25T03:43:10;98052.53;;;4.38;99.14
54876;BME280;40764;48.472;8.166;2022-11-25T03:49:10;98051.28;;;4.18;100.00
54876;BME280;40764;48.472;8.166;2022-11-25T03:55:11;98053.50;;;4.26;100.00
54876;BME280;40764;48.472;8.166;2022-11-25T04:01:12;98062.19;;;4.28;100.00
54876;BME280;40764;48.472;8.166;2022-11-25T04:07:12;98065.59;;;4.14;100.00
54876;BME280;40764;48.472;8.166;2022-11-25T04:13:12;98058.84;;;3.89;100.00
54876;BME280;40764;48.472;8.166;2022-11-25T04:19:13;98057.44;;;4.09;100.00
54876;BME280;40764;48.472;8.166;2022-11-25T04:25:13;98049.19;;;4.30;100.00
54876;BME280;40764;48.472;8.166;2022-11-25T04:31:13;98047.88;;;4.33;99.46
54876;BME280;40764;48.472;8.166;2022-11-25T04:37:14;98036.09;;;4.49;99.64
54876;BME280;40764;48.472;8.166;2022-11-25T04:43:14;98045.22;;;4.38;100.00
54876;BME280;40764;48.472;8.166;2022-11-25T04:49:14;98033.47;;;4.27;100.00
54876;BME280;40764;48.472;8.166;2022-11-25T04:55:15;98037.78;;;4.23;100.00
54876;BME280;40764;48.472;8.166;2022-11-25T05:01:15;98036.69;;;4.61;99.89
54876;BME280;40764;48.472;8.166;2022-11-25T05:07:17;98042.03;;;4.14;100.00
54876;BME280;40764;48.472;8.166;2022-11-25T05:13:18;98063.53;;;3.99;100.00
54876;BME280;40764;48.472;8.166;2022-11-25T05:19:18;98078.63;;;4.22;100.00
54876;BME280;40764;48.472;8.166;2022-11-25T05:25:18;98079.66;;;3.89;99.59
54876;BME280;40764;48.472;8.166;2022-11-25T05:31:19;98093.03;;;4.00;99.98
54876;BME280;40764;48.472;8.166;2022-11-25T05:37:20;98092.50;;;4.03;99.23
54876;BME280;40764;48.472;8.166;2022-11-25T05:43:20;98084.00;;;3.90;100.00
54876;BME280;40764;48.472;8.166;2022-11-25T05:49:21;98081.47;;;4.05;100.00
54876;BME280;40764;48.472;8.166;2022-11-25T05:55:21;98096.41;;;4.13;100.00
54876;BME280;40764;48.472;8.166;2022-11-25T06:01:21;98109.09;;;4.39;100.00
54876;BME280;40764;48.472;8.166;2022-11-25T06:07:22;98106.84;;;4.31;100.00
54876;BME280;40764;48.472;8.166;2022-11-25T06:13:23;98117.03;;;4.51;99.16
54876;BME280;40764;48.472;8.166;2022-11-25T06:19:24;98129.44;;;4.79;98.92
54876;BME280;40764;48.472;8.166;2022-11-25T06:25:24;98124.22;;;4.67;99.22
54876;BME280;40764;48.472;8.166;2022-11-25T06:31:25;98129.78;;;4.87;99.70
54876;BME280;40764;48.472;8.166;2022-11-25T06:37:25;98138.88;;;5.08;99.60
54876;BME280;40764;48.472;8.166;2022-11-25T06:43:26;98142.63;;;5.02;99.35
54876;BME280;40764;48.472;8.166;2022-11-25T06:49:26;98146.47;;;5.11;99.69
54876;BME280;40764;48.472;8.166;2022-11-25T06:55:28;98161.06;;;5.05;99.96
54876;BME280;40764;48.472;8.166;2022-11-25T07:01:29;98176.16;;;5.33;99.60
54876;BME280;40764;48.472;8.166;2022-11-25T07:07:29;98175.91;;;5.40;99.81
54876;BME280;40764;48.472;8.166;2022-11-25T07:13:29;98179.91;;;5.27;99.79
54876;BME280;40764;48.472;8.166;2022-11-25T07:19:30;98185.75;;;5.51;99.97
54876;BME280;40764;48.472;8.166;2022-11-25T07:25:32;98191.06;;;5.83;99.07
54876;BME280;40764;48.472;8.166;2022-11-25T07:31:38;98201.38;;;5.81;99.78
54876;BME280;40764;48.472;8.166;2022-11-25T07:37:38;98201.81;;;5.68;100.00
54876;BME280;40764;48.472;8.166;2022-11-25T07:43:39;98211.97;;;5.87;100.00
54876;BME280;40764;48.472;8.166;2022-11-25T07:49:39;98228.97;;;6.25;100.00
54876;BME280;40764;48.472;8.166;2022-11-25T07:55:40;98235.84;;;6.53;98.96
54876;BME280;40764;48.472;8.166;2022-11-25T08:01:41;98240.72;;;6.51;99.93
54876;BME280;40764;48.472;8.166;2022-11-25T08:07:42;98250.56;;;6.72;99.70
54876;BME280;40764;48.472;8.166;2022-11-25T08:13:42;98247.28;;;6.70;98.37
54876;BME280;40764;48.472;8.166;2022-11-25T08:19:43;98257.22;;;6.34;100.00
54876;BME280;40764;48.472;8.166;2022-11-25T08:25:43;98257.88;;;6.67;100.00
54876;BME280;40764;48.472;8.166;2022-11-25T08:31:44;98253.75;;;6.59;100.00
54876;BME280;40764;48.472;8.166;2022-11-25T08:37:45;98259.28;;;6.95;100.00
54876;BME280;40764;48.472;8.166;2022-11-25T08:43:45;98261.19;;;7.04;100.00
54876;BME280;40764;48.472;8.166;2022-11-25T08:49:50;98244.88;;;7.14;100.00
54876;BME280;40764;48.472;8.166;2022-11-25T08:55:51;98251.91;;;7.61;100.00
54876;BME280;40764;48.472;8.166;2022-11-25T09:01:51;98261.63;;;7.93;100.00
54876;BME280;40764;48.472;8.166;2022-11-25T09:07:51;98273.84;;;8.00;99.53
54876;BME280;40764;48.472;8.166;2022-11-25T09:13:52;98269.22;;;8.01;99.39
54876;BME280;40764;48.472;8.166;2022-11-25T09:19:53;98263.03;;;7.85;100.00
54876;BME280;40764;48.472;8.166;2022-11-25T09:25:55;98278.16;;;8.22;100.00
54876;BME280;40764;48.472;8.166;2022-11-25T09:31:56;98277.56;;;8.45;99.85
54876;BME280;40764;48.472;8.166;2022-11-25T09:37:56;98285.84;;;8.74;99.90
54876;BME280;40764;48.472;8.166;2022-11-25T09:44:07;98287.13;;;8.87;100.00
54876;BME280;40764;48.472;8.166;2022-11-25T10:09:34;98300.13;;;9.39;98.59
54876;BME280;40764;48.472;8.166;2022-11-25T10:15:39;98304.56;;;9.30;97.24
54876;BME280;40764;48.472;8.166;2022-11-25T10:21:42;98296.66;;;9.62;96.10
54876;BME280;40764;48.472;8.166;2022-11-25T10:27:59;98305.00;;;9.42;96.26
54876;BME280;40764;48.472;8.166;2022-11-25T10:34:00;98302.94;;;9.29;97.33
54876;BME280;40764;48.472;8.166;2022-11-25T10:40:01;98309.41;;;9.38;98.87
54876;BME280;40764;48.472;8.166;2022-11-25T10:52:09;98320.09;;;9.35;96.10
54876;BME280;40764;48.472;8.166;2022-11-25T10:58:27;98326.59;;;9.39;94.76
54876;BME280;40764;48.472;8.166;2022-11-25T11:04:27;98331.19;;;9.43;94.36
54876;BME280;40764;48.472;8.166;2022-11-25T11:10:28;98336.69;;;9.38;96.13
54876;BME280;40764;48.472;8.166;2022-11-25T11:16:32;98345.13;;;9.42;97.89
54876;BME280;40764;48.472;8.166;2022-11-25T11:22:41;98345.97;;;9.37;97.92
54876;BME280;40764;48.472;8.166;2022-11-25T11:28:43;98345.41;;;9.40;98.56
54876;BME280;40764;48.472;8.166;2022-11-25T11:35:14;98347.78;;;9.13;100.00
54876;BME280;40764;48.472;8.166;2022-11-25T11:41:30;98365.19;;;9.17;100.00
54876;BME280;40764;48.472;8.166;2022-11-25T11:54:08;98373.72;;;9.49;100.00
54876;BME280;40764;48.472;8.166;2022-11-25T12:07:17;98387.22;;;9.70;100.00
54876;BME280;40764;48.472;8.166;2022-11-25T12:19:54;98395.81;;;10.21;98.44
54876;BME280;40764;48.472;8.166;2022-11-25T12:26:01;98402.53;;;10.58;96.77
54876;BME280;40764;48.472;8.166;2022-11-25T12:38:45;98412.53;;;10.09;98.69
54876;BME280;40764;48.472;8.166;2022-11-25T12:44:58;98421.03;;;10.08;98.99
54876;BME280;40764;48.472;8.166;2022-11-25T13:04:22;98458.13;;;10.48;96.04
54876;BME280;40764;48.472;8.166;2022-11-25T13:16:30;98476.97;;;10.20;98.05
54876;BME280;40764;48.472;8.166;2022-11-25T13:22:31;98481.50;;;10.30;98.47
54876;BME280;40764;48.472;8.166;2022-11-25T13:28:36;98490.88;;;10.53;96.85
54876;BME280;40764;48.472;8.166;2022-11-25T13:34:37;98495.41;;;10.34;97.34
54876;BME280;40764;48.472;8.166;2022-11-25T13:40:38;98502.28;;;10.60;95.09
54876;BME280;40764;48.472;8.166;2022-11-25T13:46:50;98506.69;;;10.56;93.89
54876;BME280;40764;48.472;8.166;2022-11-25T13:53:00;98483.78;;;10.52;94.10
54876;BME280;40764;48.472;8.166;2022-11-25T14:30:29;98523.88;;;10.28;96.33
54876;BME280;40764;48.472;8.166;2022-11-25T14:36:38;98533.00;;;10.13;96.71
54876;BME280;40764;48.472;8.166;2022-11-25T14:42:42;98547.91;;;9.86;98.42
54876;BME280;40764;48.472;8.166;2022-11-25T14:48:52;98566.38;;;9.55;99.90
54876;BME280;40764;48.472;8.166;2022-11-25T14:54:54;98584.59;;;9.65;100.00
54876;BME280;40764;48.472;8.166;2022-11-25T15:01:00;98585.47;;;9.55;100.00
54876;BME280;40764;48.472;8.166;2022-11-25T15:07:17;98598.66;;;9.28;100.00
54876;BME280;40764;48.472;8.166;2022-11-25T15:19:38;98614.16;;;9.43;100.00
54876;BME280;40764;48.472;8.166;2022-11-25T15:25:50;98619.38;;;9.24;100.00
54876;BME280;40764;48.472;8.166;2022-11-25T15:31:52;98629.78;;;9.12;100.00
54876;BME280;40764;48.472;8.166;2022-11-25T15:37:53;98628.38;;;9.24;100.00
54876;BME280;40764;48.472;8.166;2022-11-25T15:43:55;98641.78;;;9.00;100.00
54876;BME280;40764;48.472;8.166;2022-11-25T15:49:59;98636.06;;;8.92;100.00
54876;BME280;40764;48.472;8.166;2022-11-25T15:56:02;98641.78;;;9.00;100.00
54876;BME280;40764;48.472;8.166;2022-11-25T16:08:35;98651.63;;;8.96;100.00
54876;BME280;40764;48.472;8.166;2022-11-25T16:14:36;98669.31;;;9.14;100.00
54876;BME280;40764;48.472;8.166;2022-11-25T16:20:37;98686.22;;;8.91;100.00
54876;BME280;40764;48.472;8.166;2022-11-25T16:26:47;98681.06;;;8.79;100.00
54876;BME280;40764;48.472;8.166;2022-11-25T16:32:48;98687.56;;;8.53;100.00
54876;BME280;40764;48.472;8.166;2022-11-25T16:38:52;98684.31;;;8.66;100.00
54876;BME280;40764;48.472;8.166;2022-11-25T16:44:53;98700.09;;;8.54;100.00
54876;BME280;40764;48.472;8.166;2022-11-25T16:50:53;98708.28;;;8.49;100.00
54876;BME280;40764;48.472;8.166;2022-11-25T16:56:54;98720.78;;;8.45;100.00
54876;BME280;40764;48.472;8.166;2022-11-25T17:02:54;98729.53;;;8.47;100.00
54876;BME280;40764;48.472;8.166;2022-11-25T17:08:54;98744.59;;;8.07;100.00
54876;BME280;40764;48.472;8.166;2022-11-25T17:14:55;98738.31;;;8.01;100.00
54876;BME280;40764;48.472;8.166;2022-11-25T17:20:55;98746.72;;;7.95;100.00
54876;BME280;40764;48.472;8.166;2022-11-25T17:26:59;98760.19;;;7.69;100.00
54876;BME280;40764;48.472;8.166;2022-11-25T17:33:04;98767.09;;;7.82;100.00
54876;BME280;40764;48.472;8.166;2022-11-25T17:39:05;98773.50;;;7.66;100.00
54876;BME280;40764;48.472;8.166;2022-11-25T17:45:14;98789.66;;;7.45;100.00
54876;BME280;40764;48.472;8.166;2022-11-25T17:51:14;98792.34;;;7.40;100.00
54876;BME280;40764;48.472;8.166;2022-11-25T17:57:19;98802.50;;;7.50;100.00
54876;BME280;40764;48.472;8.166;2022-11-25T18:03:20;98825.06;;;7.83;100.00
54876;BME280;40764;48.472;8.166;2022-11-25T18:09:21;98839.75;;;7.82;100.00
54876;BME280;40764;48.472;8.166;2022-11-25T18:15:24;98834.69;;;7.58;100.00
54876;BME280;40764;48.472;8.166;2022-11-25T18:21:25;98848.09;;;7.70;100.00
54876;BME280;40764;48.472;8.166;2022-11-25T18:27:27;98855.41;;;7.64;100.00
54876;BME280;40764;48.472;8.166;2022-11-25T18:33:28;98866.66;;;7.46;100.00
54876;BME280;40764;48.472;8.166;2022-11-25T18:39:28;98874.75;;;7.36;100.00
54876;BME280;40764;48.472;8.166;2022-11-25T18:45:33;98882.47;;;7.22;100.00
54876;BME280;40764;48.472;8.166;2022-11-25T18:51:38;98889.25;;;7.20;100.00
54876;BME280;40764;48.472;8.166;2022-11-25T18:57:39;98906.44;;;6.98;100.00
54876;BME280;40764;48.472;8.166;2022-11-25T19:03:40;98916.81;;;7.01;100.00
54876;BME280;40764;48.472;8.166;2022-11-25T19:09:41;98925.66;;;6.92;100.00
54876;BME280;40764;48.472;8.166;2022-11-25T19:15:43;98935.59;;;7.03;100.00
54876;BME280;40764;48.472;8.166;2022-11-25T19:21:44;98945.59;;;6.97;100.00
54876;BME280;40764;48.472;8.166;2022-11-25T19:27:47;98955.88;;;6.95;100.00
54876;BME280;40764;48.472;8.166;2022-11-25T19:33:50;98966.84;;;6.62;100.00
54876;BME280;40764;48.472;8.166;2022-11-25T19:39:51;98973.09;;;6.62;100.00
54876;BME280;40764;48.472;8.166;2022-11-25T19:45:53;98972.25;;;6.78;100.00
54876;BME280;40764;48.472;8.166;2022-11-25T19:51:54;98985.00;;;6.78;100.00
54876;BME280;40764;48.472;8.166;2022-11-25T19:57:55;98991.22;;;6.95;100.00
54876;BME280;40764;48.472;8.166;2022-11-25T20:03:55;99005.25;;;7.09;100.00
54876;BME280;40764;48.472;8.166;2022-11-25T20:10:21;99024.34;;;7.14;100.00
54876;BME280;40764;48.472;8.166;2022-11-25T20:16:24;99035.28;;;6.97;100.00
54876;BME280;40764;48.472;8.166;2022-11-25T20:22:31;99043.34;;;6.92;100.00
54876;BME280;40764;48.472;8.166;2022-11-25T20:28:33;99047.94;;;7.30;100.00
54876;BME280;40764;48.472;8.166;2022-11-25T20:34:33;99056.78;;;7.21;100.00
54876;BME280;40764;48.472;8.166;2022-11-25T20:40:41;99063.66;;;7.06;100.00
54876;BME280;40764;48.472;8.166;2022-11-25T20:46:42;99064.69;;;6.83;100.00
54876;BME280;40764;48.472;8.166;2022-11-25T20:52:48;99061.84;;;6.73;100.00
54876;BME280;40764;48.472;8.166;2022-11-25T20:58:49;99076.00;;;6.75;100.00
54876;BME280;40764;48.472;8.166;2022-11-25T21:04:49;99079.63;;;6.64;100.00
54876;BME280;40764;48.472;8.166;2022-11-25T21:10:52;99097.59;;;6.48;100.00
54876;BME280;40764;48.472;8.166;2022-11-25T21:16:53;99093.06;;;6.54;100.00
54876;BME280;40764;48.472;8.166;2022-11-25T21:22:55;99095.94;;;6.64;100.00
54876;BME280;40764;48.472;8.166;2022-11-25T21:28:57;99112.22;;;6.81;99.75
54876;BME280;40764;48.472;8.166;2022-11-25T21:34:57;99118.66;;;6.58;100.00
54876;BME280;40764;48.472;8.166;2022-11-25T21:40:58;99120.13;;;6.32;100.00
54876;BME280;40764;48.472;8.166;2022-11-25T21:46:58;99128.75;;;6.29;100.00
54876;BME280;40764;48.472;8.166;2022-11-25T21:52:59;99134.28;;;6.34;100.00
54876;BME280;40764;48.472;8.166;2022-11-25T21:59:02;99134.88;;;6.36;100.00
54876;BME280;40764;48.472;8.166;2022-11-25T22:05:04;99137.75;;;6.46;100.00
54876;BME280;40764;48.472;8.166;2022-11-25T22:11:14;99131.19;;;6.42;100.00
54876;BME280;40764;48.472;8.166;2022-11-25T22:17:16;99131.50;;;6.46;100.00
54876;BME280;40764;48.472;8.166;2022-11-25T22:23:18;99144.75;;;6.76;100.00
54876;BME280;40764;48.472;8.166;2022-11-25T22:29:21;99145.50;;;6.88;100.00
54876;BME280;40764;48.472;8.166;2022-11-25T22:35:22;99147.78;;;6.63;100.00
54876;BME280;40764;48.472;8.166;2022-11-25T22:41:22;99151.03;;;6.76;100.00
54876;BME280;40764;48.472;8.166;2022-11-25T22:47:35;99157.78;;;6.74;100.00
54876;BME280;40764;48.472;8.166;2022-11-25T22:53:36;99160.06;;;6.82;100.00
54876;BME280;40764;48.472;8.166;2022-11-25T22:59:36;99163.69;;;6.54;100.00
54876;BME280;40764;48.472;8.166;2022-11-25T23:05:38;99174.16;;;6.79;100.00
54876;BME280;40764;48.472;8.166;2022-11-25T23:11:38;99179.75;;;7.06;100.00
54876;BME280;40764;48.472;8.166;2022-11-25T23:17:41;99187.59;;;7.02;100.00
54876;BME280;40764;48.472;8.166;2022-11-25T23:23:43;99182.22;;;6.91;100.00
54876;BME280;40764;48.472;8.166;2022-11-25T23:29:44;99187.31;;;6.87;100.00
54876;BME280;40764;48.472;8.166;2022-11-25T23:35:44;99184.53;;;6.99;100.00
54876;BME280;40764;48.472;8.166;2022-11-25T23:41:45;99182.13;;;7.19;100.00
54876;BME280;40764;48.472;8.166;2022-11-25T23:47:48;99203.03;;;7.19;100.00
54876;BME280;40764;48.472;8.166;2022-11-25T23:53:50;99199.16;;;7.31;100.00
54876;BME280;40764;48.472;8.166;2022-11-25T23:59:51;99200.06;;;7.20;100.00
